sensor_id;sensor_type;location;lat;lon;timestamp;P1;durP1;ratioP1;P2;durP2;ratioP2
31182;SDS011;17813;0.000;0.000;2023-09-08T11:32:39;3.72;;;3.42;;
31182;SDS011;17813;0.000;0.000;2023-09-08T11:35:12;4.32;;;3.40;;
31182;SDS011;17813;0.000;0.000;2023-09-08T11:37:43;3.65;;;3.35;;
31182;SDS011;17813;0.000;0.000;2023-09-08T11:40:14;3.85;;;3.30;;
31182;SDS011;17813;0.000;0.000;2023-09-08T11:42:45;3.17;;;2.97;;
31182;SDS011;17813;0.000;0.000;2023-09-08T11:45:19;3.83;;;3.53;;
31182;SDS011;17813;0.000;0.000;2023-09-08T11:47:49;3.45;;;3.15;;
31182;SDS011;17813;0.000;0.000;2023-09-08T11:50:20;3.85;;;3.45;;
31182;SDS011;17813;0.000;0.000;2023-09-08T11:52:50;4.95;;;3.78;;
31182;SDS011;17813;0.000;0.000;2023-09-08T11:55:20;3.97;;;3.60;;
31182;SDS011;17813;0.000;0.000;2023-09-08T11:57:55;3.70;;;3.40;;
31182;SDS011;17813;0.000;0.000;2023-09-08T12:00:25;4.45;;;3.63;;
31182;SDS011;17813;0.000;0.000;2023-09-08T12:02:53;4.13;;;3.33;;
31182;SDS011;17813;0.000;0.000;2023-09-08T12:07:53;4.43;;;3.67;;
31182;SDS011;17813;0.000;0.000;2023-09-08T12:10:23;3.88;;;3.40;;
31182;SDS011;17813;0.000;0.000;2023-09-08T12:12:54;4.00;;;3.60;;
31182;SDS011;17813;0.000;0.000;2023-09-08T12:18:04;3.90;;;3.60;;
31182;SDS011;17813;0.000;0.000;2023-09-08T12:20:36;3.45;;;3.15;;
31182;SDS011;17813;0.000;0.000;2023-09-08T12:25:51;4.10;;;3.40;;
31182;SDS011;17813;0.000;0.000;2023-09-08T12:28:40;3.50;;;3.20;;
31182;SDS011;17813;0.000;0.000;2023-09-08T12:31:14;3.47;;;3.17;;
31182;SDS011;17813;0.000;0.000;2023-09-08T12:33:46;5.28;;;3.55;;
31182;SDS011;17813;0.000;0.000;2023-09-08T12:36:16;3.08;;;2.78;;
31182;SDS011;17813;0.000;0.000;2023-09-08T12:38:51;4.75;;;3.28;;
31182;SDS011;17813;0.000;0.000;2023-09-08T12:41:36;3.83;;;3.53;;
31182;SDS011;17813;0.000;0.000;2023-09-08T12:44:06;3.72;;;3.30;;
31182;SDS011;17813;0.000;0.000;2023-09-08T12:46:34;3.80;;;3.50;;
31182;SDS011;17813;0.000;0.000;2023-09-08T12:49:06;6.90;;;3.60;;
31182;SDS011;17813;0.000;0.000;2023-09-08T12:51:44;3.90;;;3.60;;
31182;SDS011;17813;0.000;0.000;2023-09-08T12:54:10;3.90;;;3.17;;
31182;SDS011;17813;0.000;0.000;2023-09-08T12:56:38;4.20;;;3.25;;
31182;SDS011;17813;0.000;0.000;2023-09-08T12:59:09;4.20;;;3.20;;
31182;SDS011;17813;0.000;0.000;2023-09-08T13:02:00;3.85;;;3.50;;
31182;SDS011;17813;0.000;0.000;2023-09-08T13:04:47;3.47;;;3.17;;
31182;SDS011;17813;0.000;0.000;2023-09-08T13:07:26;3.95;;;3.25;;
31182;SDS011;17813;0.000;0.000;2023-09-08T13:10:16;4.80;;;3.13;;
31182;SDS011;17813;0.000;0.000;2023-09-08T13:12:44;3.50;;;3.20;;
31182;SDS011;17813;0.000;0.000;2023-09-08T13:15:35;5.90;;;3.17;;
31182;SDS011;17813;0.000;0.000;2023-09-08T13:18:06;3.53;;;3.22;;
31182;SDS011;17813;0.000;0.000;2023-09-08T13:20:34;3.63;;;3.33;;
31182;SDS011;17813;0.000;0.000;2023-09-08T13:23:02;4.85;;;3.47;;
31182;SDS011;17813;0.000;0.000;2023-09-08T13:25:28;3.83;;;3.20;;
31182;SDS011;17813;0.000;0.000;2023-09-08T13:27:57;3.67;;;3.38;;
31182;SDS011;17813;0.000;0.000;2023-09-08T13:30:26;3.80;;;3.40;;
31182;SDS011;17813;0.000;0.000;2023-09-08T13:32:55;4.40;;;3.60;;
31182;SDS011;17813;0.000;0.000;2023-09-08T13:35:22;3.55;;;3.25;;
31182;SDS011;17813;0.000;0.000;2023-09-08T13:37:52;3.42;;;3.22;;
31182;SDS011;17813;0.000;0.000;2023-09-08T13:40:19;3.95;;;3.17;;
31182;SDS011;17813;0.000;0.000;2023-09-08T13:42:51;4.00;;;3.50;;
31182;SDS011;17813;0.000;0.000;2023-09-08T13:45:28;4.93;;;3.53;;
31182;SDS011;17813;0.000;0.000;2023-09-08T13:47:57;5.13;;;3.58;;
31182;SDS011;17813;0.000;0.000;2023-09-08T13:50:29;4.28;;;3.88;;
31182;SDS011;17813;0.000;0.000;2023-09-08T13:52:57;4.40;;;3.55;;
31182;SDS011;17813;0.000;0.000;2023-09-08T13:55:25;5.03;;;3.75;;
31182;SDS011;17813;0.000;0.000;2023-09-08T13:57:52;3.78;;;3.47;;
31182;SDS011;17813;0.000;0.000;2023-09-08T14:00:25;4.15;;;3.50;;
31182;SDS011;17813;0.000;0.000;2023-09-08T14:02:57;4.97;;;3.50;;
31182;SDS011;17813;0.000;0.000;2023-09-08T14:05:24;5.43;;;3.60;;
31182;SDS011;17813;0.000;0.000;2023-09-08T14:07:51;4.57;;;3.63;;
31182;SDS011;17813;0.000;0.000;2023-09-08T14:10:18;3.95;;;3.50;;
31182;SDS011;17813;0.000;0.000;2023-09-08T14:12:45;5.95;;;3.60;;
31182;SDS011;17813;0.000;0.000;2023-09-08T14:15:21;5.15;;;3.67;;
31182;SDS011;17813;0.000;0.000;2023-09-08T14:17:54;4.93;;;3.53;;
31182;SDS011;17813;0.000;0.000;2023-09-08T14:20:27;3.80;;;3.47;;
31182;SDS011;17813;0.000;0.000;2023-09-08T14:22:54;3.97;;;3.58;;
31182;SDS011;17813;0.000;0.000;2023-09-08T14:25:21;4.28;;;3.38;;
31182;SDS011;17813;0.000;0.000;2023-09-08T14:27:55;3.50;;;3.20;;
31182;SDS011;17813;0.000;0.000;2023-09-08T14:30:22;4.22;;;3.80;;
31182;SDS011;17813;0.000;0.000;2023-09-08T14:32:53;3.50;;;3.20;;
31182;SDS011;17813;0.000;0.000;2023-09-08T14:35:28;3.60;;;3.30;;
31182;SDS011;17813;0.000;0.000;2023-09-08T14:38:07;3.50;;;3.20;;
31182;SDS011;17813;0.000;0.000;2023-09-08T14:40:34;4.25;;;3.40;;
31182;SDS011;17813;0.000;0.000;2023-09-08T14:43:00;3.72;;;3.33;;
31182;SDS011;17813;0.000;0.000;2023-09-08T14:45:30;3.80;;;3.25;;
31182;SDS011;17813;0.000;0.000;2023-09-08T14:48:02;3.90;;;3.50;;
31182;SDS011;17813;0.000;0.000;2023-09-08T14:50:36;5.25;;;3.30;;
31182;SDS011;17813;0.000;0.000;2023-09-08T14:53:30;3.50;;;3.20;;
31182;SDS011;17813;0.000;0.000;2023-09-08T14:55:58;4.07;;;3.60;;
31182;SDS011;17813;0.000;0.000;2023-09-08T14:58:25;3.72;;;3.42;;
31182;SDS011;17813;0.000;0.000;2023-09-08T15:01:03;4.88;;;3.50;;
31182;SDS011;17813;0.000;0.000;2023-09-08T15:03:36;4.57;;;3.30;;
31182;SDS011;17813;0.000;0.000;2023-09-08T15:06:21;4.15;;;3.47;;
31182;SDS011;17813;0.000;0.000;2023-09-08T15:08:49;3.30;;;3.10;;
31182;SDS011;17813;0.000;0.000;2023-09-08T15:11:16;3.80;;;3.40;;
31182;SDS011;17813;0.000;0.000;2023-09-08T15:13:43;3.90;;;3.60;;
31182;SDS011;17813;0.000;0.000;2023-09-08T15:16:12;3.78;;;3.47;;
31182;SDS011;17813;0.000;0.000;2023-09-08T15:18:54;3.90;;;3.60;;
31182;SDS011;17813;0.000;0.000;2023-09-08T15:21:23;3.70;;;3.40;;
31182;SDS011;17813;0.000;0.000;2023-09-08T15:23:53;3.95;;;3.53;;
31182;SDS011;17813;0.000;0.000;2023-09-08T15:26:24;3.88;;;3.50;;
31182;SDS011;17813;0.000;0.000;2023-09-08T15:28:51;3.47;;;3.20;;
31182;SDS011;17813;0.000;0.000;2023-09-08T15:31:18;4.97;;;3.25;;
31182;SDS011;17813;0.000;0.000;2023-09-08T15:33:53;3.72;;;3.42;;
31182;SDS011;17813;0.000;0.000;2023-09-08T15:36:20;3.50;;;3.20;;
31182;SDS011;17813;0.000;0.000;2023-09-08T15:38:52;3.92;;;3.50;;
31182;SDS011;17813;0.000;0.000;2023-09-08T15:41:23;4.15;;;3.75;;
31182;SDS011;17813;0.000;0.000;2023-09-08T15:43:50;3.67;;;3.38;;
31182;SDS011;17813;0.000;0.000;2023-09-08T15:46:17;4.75;;;3.60;;
31182;SDS011;17813;0.000;0.000;2023-09-08T15:48:45;3.70;;;3.40;;
31182;SDS011;17813;0.000;0.000;2023-09-08T15:51:12;3.70;;;3.40;;
31182;SDS011;17813;0.000;0.000;2023-09-08T15:54:13;4.22;;;3.20;;
31182;SDS011;17813;0.000;0.000;2023-09-08T15:56:40;3.28;;;3.00;;
31182;SDS011;17813;0.000;0.000;2023-09-08T15:59:25;3.97;;;3.45;;
31182;SDS011;17813;0.000;0.000;2023-09-08T16:01:52;3.67;;;3.38;;
31182;SDS011;17813;0.000;0.000;2023-09-08T16:04:22;3.80;;;3.50;;
31182;SDS011;17813;0.000;0.000;2023-09-08T16:06:54;3.75;;;3.40;;
31182;SDS011;17813;0.000;0.000;2023-09-08T16:09:21;4.45;;;3.40;;
31182;SDS011;17813;0.000;0.000;2023-09-08T16:11:49;3.72;;;3.35;;
31182;SDS011;17813;0.000;0.000;2023-09-08T16:14:21;4.53;;;3.30;;
31182;SDS011;17813;0.000;0.000;2023-09-08T16:16:48;4.75;;;3.10;;
31182;SDS011;17813;0.000;0.000;2023-09-08T16:19:18;3.75;;;3.45;;
31182;SDS011;17813;0.000;0.000;2023-09-08T16:21:44;3.50;;;3.20;;
31182;SDS011;17813;0.000;0.000;2023-09-08T16:24:11;5.20;;;3.30;;
31182;SDS011;17813;0.000;0.000;2023-09-08T16:26:38;3.60;;;3.30;;
31182;SDS011;17813;0.000;0.000;2023-09-08T16:29:05;3.60;;;3.20;;
31182;SDS011;17813;0.000;0.000;2023-09-08T16:31:32;3.83;;;3.35;;
31182;SDS011;17813;0.000;0.000;2023-09-08T16:34:14;3.70;;;3.35;;
31182;SDS011;17813;0.000;0.000;2023-09-08T16:36:41;3.83;;;3.22;;
31182;SDS011;17813;0.000;0.000;2023-09-08T16:39:13;5.75;;;3.30;;
31182;SDS011;17813;0.000;0.000;2023-09-08T16:41:58;3.75;;;3.28;;
31182;SDS011;17813;0.000;0.000;2023-09-08T16:44:25;4.57;;;3.83;;
31182;SDS011;17813;0.000;0.000;2023-09-08T16:47:17;3.63;;;3.22;;
31182;SDS011;17813;0.000;0.000;2023-09-08T16:49:45;3.60;;;3.30;;
31182;SDS011;17813;0.000;0.000;2023-09-08T16:52:12;4.38;;;3.28;;
31182;SDS011;17813;0.000;0.000;2023-09-08T16:54:40;6.63;;;3.63;;
31182;SDS011;17813;0.000;0.000;2023-09-08T16:57:07;4.50;;;3.40;;
31182;SDS011;17813;0.000;0.000;2023-09-08T16:59:34;3.50;;;3.20;;
31182;SDS011;17813;0.000;0.000;2023-09-08T17:02:19;3.97;;;3.50;;
31182;SDS011;17813;0.000;0.000;2023-09-08T17:04:47;4.47;;;3.05;;
31182;SDS011;17813;0.000;0.000;2023-09-08T17:07:17;4.38;;;3.53;;
31182;SDS011;17813;0.000;0.000;2023-09-08T17:09:43;4.38;;;3.42;;
31182;SDS011;17813;0.000;0.000;2023-09-08T17:12:10;4.68;;;3.85;;
31182;SDS011;17813;0.000;0.000;2023-09-08T17:14:39;4.47;;;3.40;;
31182;SDS011;17813;0.000;0.000;2023-09-08T17:17:06;4.00;;;3.60;;
31182;SDS011;17813;0.000;0.000;2023-09-08T17:19:54;4.80;;;3.92;;
31182;SDS011;17813;0.000;0.000;2023-09-08T17:22:22;7.18;;;4.07;;
31182;SDS011;17813;0.000;0.000;2023-09-08T17:24:49;4.15;;;3.75;;
31182;SDS011;17813;0.000;0.000;2023-09-08T17:27:33;4.95;;;3.50;;
31182;SDS011;17813;0.000;0.000;2023-09-08T17:30:00;4.22;;;3.80;;
31182;SDS011;17813;0.000;0.000;2023-09-08T17:32:33;4.03;;;3.60;;
31182;SDS011;17813;0.000;0.000;2023-09-08T17:35:10;3.70;;;3.40;;
31182;SDS011;17813;0.000;0.000;2023-09-08T17:37:37;4.70;;;3.55;;
31182;SDS011;17813;0.000;0.000;2023-09-08T17:40:05;4.57;;;3.78;;
31182;SDS011;17813;0.000;0.000;2023-09-08T17:42:43;4.53;;;3.70;;
31182;SDS011;17813;0.000;0.000;2023-09-08T17:45:10;4.30;;;3.90;;
31182;SDS011;17813;0.000;0.000;2023-09-08T17:47:38;6.25;;;3.83;;
31182;SDS011;17813;0.000;0.000;2023-09-08T17:50:08;5.47;;;3.95;;
31182;SDS011;17813;0.000;0.000;2023-09-08T17:52:35;5.03;;;4.10;;
31182;SDS011;17813;0.000;0.000;2023-09-08T17:55:13;5.82;;;4.38;;
31182;SDS011;17813;0.000;0.000;2023-09-08T17:57:40;7.40;;;3.90;;
31182;SDS011;17813;0.000;0.000;2023-09-08T18:00:07;5.63;;;4.15;;
31182;SDS011;17813;0.000;0.000;2023-09-08T18:02:41;8.45;;;4.88;;
31182;SDS011;17813;0.000;0.000;2023-09-08T18:05:33;7.25;;;4.97;;
31182;SDS011;17813;0.000;0.000;2023-09-08T18:08:00;7.63;;;5.75;;
31182;SDS011;17813;0.000;0.000;2023-09-08T18:10:33;7.80;;;5.25;;
31182;SDS011;17813;0.000;0.000;2023-09-08T18:13:01;8.27;;;4.97;;
31182;SDS011;17813;0.000;0.000;2023-09-08T18:15:28;12.07;;;6.70;;
31182;SDS011;17813;0.000;0.000;2023-09-08T18:18:04;8.95;;;6.72;;
31182;SDS011;17813;0.000;0.000;2023-09-08T18:20:36;8.60;;;6.10;;
31182;SDS011;17813;0.000;0.000;2023-09-08T18:23:10;8.10;;;5.57;;
31182;SDS011;17813;0.000;0.000;2023-09-08T18:25:37;8.13;;;6.03;;
31182;SDS011;17813;0.000;0.000;2023-09-08T18:28:04;6.90;;;6.18;;
31182;SDS011;17813;0.000;0.000;2023-09-08T18:30:44;9.18;;;6.05;;
31182;SDS011;17813;0.000;0.000;2023-09-08T18:33:16;7.50;;;6.00;;
31182;SDS011;17813;0.000;0.000;2023-09-08T18:35:43;7.47;;;5.28;;
31182;SDS011;17813;0.000;0.000;2023-09-08T18:38:29;9.20;;;7.18;;
31182;SDS011;17813;0.000;0.000;2023-09-08T18:40:57;11.70;;;7.65;;
31182;SDS011;17813;0.000;0.000;2023-09-08T18:43:24;9.23;;;7.45;;
31182;SDS011;17813;0.000;0.000;2023-09-08T18:46:19;11.50;;;6.97;;
31182;SDS011;17813;0.000;0.000;2023-09-08T18:48:45;8.60;;;6.47;;
31182;SDS011;17813;0.000;0.000;2023-09-08T18:51:25;7.95;;;5.75;;
31182;SDS011;17813;0.000;0.000;2023-09-08T18:54:08;8.98;;;4.82;;
31182;SDS011;17813;0.000;0.000;2023-09-08T18:56:35;5.93;;;5.07;;
31182;SDS011;17813;0.000;0.000;2023-09-08T18:59:17;5.75;;;4.93;;
31182;SDS011;17813;0.000;0.000;2023-09-08T19:01:45;6.67;;;4.83;;
31182;SDS011;17813;0.000;0.000;2023-09-08T19:04:12;9.27;;;5.20;;
31182;SDS011;17813;0.000;0.000;2023-09-08T19:06:43;7.10;;;6.40;;
31182;SDS011;17813;0.000;0.000;2023-09-08T19:09:15;13.20;;;8.40;;
31182;SDS011;17813;0.000;0.000;2023-09-08T19:11:47;7.00;;;5.70;;
31182;SDS011;17813;0.000;0.000;2023-09-08T19:14:14;7.30;;;4.80;;
31182;SDS011;17813;0.000;0.000;2023-09-08T19:16:45;6.50;;;4.70;;
31182;SDS011;17813;0.000;0.000;2023-09-08T19:19:12;5.50;;;4.57;;
31182;SDS011;17813;0.000;0.000;2023-09-08T19:21:39;6.30;;;4.30;;
31182;SDS011;17813;0.000;0.000;2023-09-08T19:24:23;5.00;;;4.50;;
31182;SDS011;17813;0.000;0.000;2023-09-08T19:26:52;5.17;;;4.50;;
31182;SDS011;17813;0.000;0.000;2023-09-08T19:29:19;5.73;;;4.70;;
31182;SDS011;17813;0.000;0.000;2023-09-08T19:31:51;5.20;;;4.70;;
31182;SDS011;17813;0.000;0.000;2023-09-08T19:34:22;5.90;;;4.63;;
31182;SDS011;17813;0.000;0.000;2023-09-08T19:36:54;5.57;;;4.50;;
31182;SDS011;17813;0.000;0.000;2023-09-08T19:39:22;4.90;;;4.50;;
31182;SDS011;17813;0.000;0.000;2023-09-08T19:41:49;5.57;;;5.07;;
31182;SDS011;17813;0.000;0.000;2023-09-08T19:44:16;6.57;;;5.37;;
31182;SDS011;17813;0.000;0.000;2023-09-08T19:46:44;6.17;;;5.30;;
31182;SDS011;17813;0.000;0.000;2023-09-08T19:49:33;7.07;;;5.40;;
31182;SDS011;17813;0.000;0.000;2023-09-08T19:52:10;9.17;;;8.30;;
31182;SDS011;17813;0.000;0.000;2023-09-08T19:54:44;11.83;;;9.80;;
31182;SDS011;17813;0.000;0.000;2023-09-08T19:57:11;9.90;;;8.90;;
31182;SDS011;17813;0.000;0.000;2023-09-08T19:59:43;7.10;;;5.60;;
31182;SDS011;17813;0.000;0.000;2023-09-08T20:02:12;7.03;;;5.20;;
31182;SDS011;17813;0.000;0.000;2023-09-08T20:10:59;7.30;;;5.07;;
31182;SDS011;17813;0.000;0.000;2023-09-08T20:13:27;10.40;;;5.60;;
31182;SDS011;17813;0.000;0.000;2023-09-08T20:15:57;6.67;;;5.00;;
31182;SDS011;17813;0.000;0.000;2023-09-08T20:18:34;6.50;;;5.20;;
31182;SDS011;17813;0.000;0.000;2023-09-08T20:21:06;6.77;;;5.10;;
31182;SDS011;17813;0.000;0.000;2023-09-08T20:23:34;5.73;;;5.10;;
31182;SDS011;17813;0.000;0.000;2023-09-08T20:26:01;8.80;;;5.50;;
31182;SDS011;17813;0.000;0.000;2023-09-08T20:28:34;7.73;;;6.10;;
31182;SDS011;17813;0.000;0.000;2023-09-08T20:31:01;8.20;;;5.53;;
31182;SDS011;17813;0.000;0.000;2023-09-08T20:33:29;8.73;;;6.10;;
31182;SDS011;17813;0.000;0.000;2023-09-08T20:36:03;6.10;;;5.53;;
31182;SDS011;17813;0.000;0.000;2023-09-08T20:38:45;6.60;;;5.73;;
31182;SDS011;17813;0.000;0.000;2023-09-08T20:41:30;7.40;;;5.33;;
31182;SDS011;17813;0.000;0.000;2023-09-08T20:43:57;5.67;;;5.17;;
31182;SDS011;17813;0.000;0.000;2023-09-08T20:46:32;6.07;;;5.23;;
31182;SDS011;17813;0.000;0.000;2023-09-08T20:48:59;6.00;;;5.20;;
31182;SDS011;17813;0.000;0.000;2023-09-08T20:51:26;5.80;;;5.30;;
31182;SDS011;17813;0.000;0.000;2023-09-08T20:54:07;6.00;;;5.33;;
31182;SDS011;17813;0.000;0.000;2023-09-08T20:56:37;6.87;;;5.90;;
31182;SDS011;17813;0.000;0.000;2023-09-08T20:59:07;6.77;;;6.07;;
31182;SDS011;17813;0.000;0.000;2023-09-08T21:01:50;7.87;;;5.87;;
31182;SDS011;17813;0.000;0.000;2023-09-08T21:04:17;6.97;;;5.70;;
31182;SDS011;17813;0.000;0.000;2023-09-08T21:06:53;6.27;;;5.67;;
31182;SDS011;17813;0.000;0.000;2023-09-08T21:09:29;8.33;;;5.57;;
31182;SDS011;17813;0.000;0.000;2023-09-08T21:11:56;6.43;;;5.83;;
31182;SDS011;17813;0.000;0.000;2023-09-08T21:14:23;6.30;;;5.70;;
31182;SDS011;17813;0.000;0.000;2023-09-08T21:17:10;7.50;;;6.27;;
31182;SDS011;17813;0.000;0.000;2023-09-08T21:19:41;9.67;;;6.33;;
31182;SDS011;17813;0.000;0.000;2023-09-08T21:22:17;7.97;;;6.10;;
31182;SDS011;17813;0.000;0.000;2023-09-08T21:24:50;7.83;;;6.20;;
31182;SDS011;17813;0.000;0.000;2023-09-08T21:27:23;6.80;;;6.17;;
31182;SDS011;17813;0.000;0.000;2023-09-08T21:30:13;8.97;;;6.43;;
31182;SDS011;17813;0.000;0.000;2023-09-08T21:32:45;9.13;;;6.10;;
31182;SDS011;17813;0.000;0.000;2023-09-08T21:35:21;7.23;;;6.23;;
31182;SDS011;17813;0.000;0.000;2023-09-08T21:37:48;7.10;;;6.40;;
31182;SDS011;17813;0.000;0.000;2023-09-08T21:40:31;7.13;;;6.10;;
31182;SDS011;17813;0.000;0.000;2023-09-08T21:43:08;7.10;;;5.97;;
31182;SDS011;17813;0.000;0.000;2023-09-08T21:46:06;7.17;;;6.23;;
31182;SDS011;17813;0.000;0.000;2023-09-08T21:48:39;6.90;;;6.20;;
31182;SDS011;17813;0.000;0.000;2023-09-08T21:51:18;7.60;;;6.40;;
31182;SDS011;17813;0.000;0.000;2023-09-08T21:53:46;6.90;;;6.30;;
31182;SDS011;17813;0.000;0.000;2023-09-08T21:56:20;6.97;;;6.27;;
31182;SDS011;17813;0.000;0.000;2023-09-08T21:58:56;6.93;;;6.23;;
31182;SDS011;17813;0.000;0.000;2023-09-08T22:01:29;6.97;;;6.33;;
31182;SDS011;17813;0.000;0.000;2023-09-08T22:04:17;7.00;;;6.33;;
31182;SDS011;17813;0.000;0.000;2023-09-08T22:06:45;8.60;;;7.03;;
31182;SDS011;17813;0.000;0.000;2023-09-08T22:09:20;7.13;;;6.53;;
31182;SDS011;17813;0.000;0.000;2023-09-08T22:12:14;7.27;;;6.53;;
31182;SDS011;17813;0.000;0.000;2023-09-08T22:14:42;6.33;;;5.80;;
31182;SDS011;17813;0.000;0.000;2023-09-08T22:17:15;7.30;;;6.60;;
31182;SDS011;17813;0.000;0.000;2023-09-08T22:19:48;8.10;;;6.63;;
31182;SDS011;17813;0.000;0.000;2023-09-08T22:22:18;7.23;;;6.50;;
31182;SDS011;17813;0.000;0.000;2023-09-08T22:24:54;7.60;;;6.87;;
31182;SDS011;17813;0.000;0.000;2023-09-08T22:27:26;6.80;;;6.10;;
31182;SDS011;17813;0.000;0.000;2023-09-08T22:29:53;8.00;;;6.40;;
31182;SDS011;17813;0.000;0.000;2023-09-08T22:32:33;7.87;;;6.63;;
31182;SDS011;17813;0.000;0.000;2023-09-08T22:35:07;7.43;;;6.73;;
31182;SDS011;17813;0.000;0.000;2023-09-08T22:37:39;9.40;;;7.10;;
31182;SDS011;17813;0.000;0.000;2023-09-08T22:40:21;7.67;;;6.97;;
31182;SDS011;17813;0.000;0.000;2023-09-08T22:42:57;6.80;;;6.20;;
31182;SDS011;17813;0.000;0.000;2023-09-08T22:45:29;7.30;;;6.50;;
31182;SDS011;17813;0.000;0.000;2023-09-08T22:48:09;7.00;;;6.40;;
31182;SDS011;17813;0.000;0.000;2023-09-08T22:50:59;7.27;;;6.57;;
31182;SDS011;17813;0.000;0.000;2023-09-08T22:53:33;7.43;;;6.77;;
31182;SDS011;17813;0.000;0.000;2023-09-08T22:56:09;7.10;;;6.40;;
31182;SDS011;17813;0.000;0.000;2023-09-08T22:58:45;7.13;;;6.40;;
31182;SDS011;17813;0.000;0.000;2023-09-08T23:01:44;8.17;;;7.03;;
31182;SDS011;17813;0.000;0.000;2023-09-08T23:04:11;8.20;;;7.40;;
31182;SDS011;17813;0.000;0.000;2023-09-08T23:06:38;7.97;;;7.17;;
31182;SDS011;17813;0.000;0.000;2023-09-08T23:09:05;8.13;;;7.33;;
31182;SDS011;17813;0.000;0.000;2023-09-08T23:11:38;7.40;;;6.60;;
31182;SDS011;17813;0.000;0.000;2023-09-08T23:14:11;7.67;;;6.90;;
31182;SDS011;17813;0.000;0.000;2023-09-08T23:17:00;7.27;;;6.57;;
31182;SDS011;17813;0.000;0.000;2023-09-08T23:19:33;7.03;;;6.33;;
31182;SDS011;17813;0.000;0.000;2023-09-08T23:22:09;7.37;;;6.70;;
31182;SDS011;17813;0.000;0.000;2023-09-08T23:24:44;7.63;;;6.93;;
31182;SDS011;17813;0.000;0.000;2023-09-08T23:27:20;7.10;;;6.50;;
31182;SDS011;17813;0.000;0.000;2023-09-08T23:29:58;7.70;;;7.00;;
31182;SDS011;17813;0.000;0.000;2023-09-08T23:32:29;7.13;;;6.43;;
31182;SDS011;17813;0.000;0.000;2023-09-08T23:35:01;7.13;;;6.43;;
31182;SDS011;17813;0.000;0.000;2023-09-08T23:37:34;7.50;;;6.80;;
31182;SDS011;17813;0.000;0.000;2023-09-08T23:40:01;7.17;;;6.47;;
31182;SDS011;17813;0.000;0.000;2023-09-08T23:42:40;7.97;;;6.30;;
31182;SDS011;17813;0.000;0.000;2023-09-08T23:45:08;8.80;;;6.63;;
31182;SDS011;17813;0.000;0.000;2023-09-08T23:47:35;7.87;;;6.50;;
31182;SDS011;17813;0.000;0.000;2023-09-08T23:50:04;7.73;;;6.93;;
31182;SDS011;17813;0.000;0.000;2023-09-08T23:52:37;8.73;;;7.23;;
31182;SDS011;17813;0.000;0.000;2023-09-08T23:55:04;7.83;;;7.03;;
31182;SDS011;17813;0.000;0.000;2023-09-08T23:57:37;8.37;;;7.03;;
